TJSJTDPD

Guest
Details From TJSJ - Luis Munoz Marin Intl
To TDPD - Douglas-Charles
Flight Number -
Tags decoded
Created
Modified
Stats Distance 327 nm / 605 km
Max Altitude 0 ft / 0 m
Waypoints 6
Social Downloads 0
Likes 0
Share

Download

Looking for another format? Having issues loading an existing format? Contact us
Advertisement - Login to hide

Notes

Requested: TJSJ TUKRE SNOOZ D239U GADMO TDPD

Route

TJSJ TUKRE SNOOZ D239U GADMO TDPD

ID Type Via Altitude (ft/m) Position (lat/lon) Dist (leg/tot) Name
O TJSJ APT - 0 / 0 18.43870 / -66.00220 - / 0 nm Luis Munoz Marin Intl
TUKRE FIX - 0 / 0 18.48070 / -65.91140 5 / 5 nm
SNOOZ FIX - 0 / 0 17.81500 / -65.08390 61 / 67 nm
D239U FIX - 0 / 0 16.01220 / -61.79260 217 / 285 nm
GADMO FIX - 0 / 0 15.82970 / -61.46550 21 / 307 nm
O TDPD APT - 0 / 0 15.54660 / -61.30140 19 / 326 nm Douglas-Charles

Altitude Profile

Advertisement - Login to hide

Weather


0- 5 10 15 20 25 30 35+ Temperature / °C

Clouds and Precipitation
Forecast for 2024-03-04 12:00 UTC. Updated 5 hours ago

Ground ~20,000 ft ~40,000 ft Winds

TJSJ

Details ICAO TJSJ (SJU)
Name Luis Munoz Marin Intl
Region USA (Puerto Rico)
Timezone America/Puerto_Rico (UTC-4.0)
Stats Elevation 8 ft / 2 m (AMSL)
Location 18.438700° -66.002200°
Runways 2
Magnetic Variation 13.507° W

METAR

TJSJ 041356Z 08017G23KT 10SM FEW030 SCT043 SCT075 26/21 A3008

Decode

TAF

TAF TJSJ 041120Z 0412/0512 09012KT P6SM -SHRA SCT025 BKN035 BKN060 FM041500 06015G23KT P6SM VCSH FEW025 SCT035 FM042200 08010KT P6SM FEW028 FEW035

Decode

Departure Runways

ID Width Length Bearing (true/mag) Surface Threshold Overrun Markings Lighting
08 200 ft / 61 m 10,410 ft / 3,173 m 66.85° / 80.36° ASPHALT 404 ft / 123 m 394 ft / 120 m PREC-APP CENTERLINE EDGE THRESHOLD MALSR REIL-OMNI
10 151 ft / 46 m 8,006 ft / 2,440 m 90.14° / 103.65° CONCRETE 0 ft / 0 m 203 ft / 62 m PREC-APP CENTERLINE EDGE THRESHOLD MALSR REIL-OMNI
26 200 ft / 61 m 10,410 ft / 3,173 m 246.86° / 260.37° ASPHALT 400 ft / 122 m 397 ft / 121 m PREC-APP CENTERLINE EDGE THRESHOLD REIL-OMNI
28 151 ft / 46 m 8,006 ft / 2,440 m 270.15° / 283.66° CONCRETE 0 ft / 0 m 200 ft / 61 m PREC-APP CENTERLINE EDGE THRESHOLD REIL-OMNI

TDPD

Details ICAO TDPD (DOM)
Name Douglas-Charles
Region Dominica
Timezone America/Dominica (UTC-4.0)
Stats Elevation 73 ft / 22 m (AMSL)
Location 15.546600° -61.301400°
Runways 1
Magnetic Variation 15.114° W

METAR

TDPD 041400Z 10004KT 9999 -SHRA BKN015 BKN032 24/22 Q1018

Decode

TAF

TAF TDPD 041100Z 0412/0512 10010KT 9999 SCT018 PROB30 TEMPO 0412/0415 SHRA BKN015

Decode

Destination Runways

ID Width Length Bearing (true/mag) Surface Threshold Overrun Markings Lighting
09 148 ft / 45 m 5,704 ft / 1,739 m 69.87° / 84.98° ASPHALT 1,109 ft / 338 m 0 ft / 0 m PREC-APP EDGE THRESHOLD
27 148 ft / 45 m 5,704 ft / 1,739 m 249.87° / 264.98° ASPHALT 0 ft / 0 m 0 ft / 0 m PREC-APP EDGE THRESHOLD SALS

Popular Alternatives